Time;durP1;ratioP1;P1;durP2;ratioP2;P2;SDS_P1;SDS_P2;PMS_P1;PMS_P2;Temp;Humidity;BMP_temperature;BMP_pressure;BME280_temperature;BME280_humidity;BME280_pressure;Samples;Min_cycle;Max_cycle;Signal;HPM_P1;HPM_P2
2022/02/28 00:00:47;;;;;;;17.77;6.30;;;;;;;3.55;50.49;99900.34;1636197;84;21099;-88
2022/02/28 00:03:14;;;;;;;16.70;6.35;;;;;;;3.54;50.67;99897.31;1647757;81;21104;-89
2022/02/28 00:05:40;;;;;;;12.35;5.65;;;;;;;3.48;51.19;99899.78;1641020;85;21072;-90
2022/02/28 00:08:07;;;;;;;14.73;6.00;;;;;;;3.48;50.67;99900.67;1657951;86;21051;-89
2022/02/28 00:10:33;;;;;;;12.28;5.03;;;;;;;3.43;52.19;99895.01;1655233;85;21040;-89
2022/02/28 00:13:00;;;;;;;14.07;6.62;;;;;;;3.44;50.73;99891.58;1662971;85;22225;-88
2022/02/28 00:15:26;;;;;;;13.85;5.70;;;;;;;3.39;51.32;99888.52;1685026;85;21127;-89
2022/02/28 00:17:53;;;;;;;13.78;5.97;;;;;;;3.42;50.67;99895.41;1680272;85;20998;-87
2022/02/28 00:20:20;;;;;;;13.35;5.28;;;;;;;3.37;51.36;99891.91;1654362;86;21603;-90
2022/02/28 00:22:49;;;;;;;14.40;5.33;;;;;;;3.36;51.23;99891.45;1652238;85;21035;-87
2022/02/28 00:25:15;;;;;;;21.20;8.23;;;;;;;3.32;52.05;99889.67;1682608;81;21554;-88
2022/02/28 00:27:42;;;;;;;18.80;7.75;;;;;;;3.30;51.55;99893.52;1698071;83;21042;-88
2022/02/28 00:30:11;;;;;;;16.97;6.85;;;;;;;3.27;52.42;99892.17;1672375;83;21019;-84
2022/02/28 00:32:39;;;;;;;14.45;6.22;;;;;;;3.25;52.34;99889.99;1694992;85;20998;-87
2022/02/28 00:35:08;;;;;;;13.48;5.95;;;;;;;3.24;52.67;99884.39;1687520;81;21137;-87
2022/02/28 00:37:36;;;;;;;14.47;6.22;;;;;;;3.23;52.12;99882.68;1669853;83;21159;-87
2022/02/28 00:40:06;;;;;;;14.80;6.05;;;;;;;3.22;51.82;99882.64;1656469;83;22217;-88
2022/02/28 00:42:34;;;;;;;19.42;7.12;;;;;;;3.21;51.73;99877.94;1631532;84;21195;-87
2022/02/28 00:45:01;;;;;;;15.68;6.58;;;;;;;3.19;51.34;99878.33;1684399;85;20993;-86
2022/02/28 00:47:28;;;;;;;16.02;5.53;;;;;;;3.14;52.02;99876.09;1706853;82;21523;-88
2022/02/28 00:49:55;;;;;;;12.93;5.58;;;;;;;3.14;51.32;99876.09;1745359;82;21003;-86
2022/02/28 00:52:21;;;;;;;19.02;7.17;;;;;;;3.09;51.88;99868.73;1745341;82;21000;-88
2022/02/28 00:54:48;;;;;;;23.32;8.35;;;;;;;3.07;51.87;99868.70;1730664;82;20985;-86
2022/02/28 00:57:14;;;;;;;12.55;5.90;;;;;;;3.05;51.78;99863.95;1741439;82;21008;-88
2022/02/28 00:59:41;;;;;;;17.05;7.37;;;;;;;2.99;51.88;99859.57;1702518;84;21032;-88
2022/02/28 01:02:07;;;;;;;14.28;6.22;;;;;;;2.96;51.88;99855.68;1664129;86;21160;-87
2022/02/28 01:04:34;;;;;;;15.78;7.03;;;;;;;2.93;51.49;99860.75;1728963;82;21087;-88
2022/02/28 01:07:00;;;;;;;14.23;5.30;;;;;;;2.92;51.32;99853.86;1741586;81;21001;-88
2022/02/28 01:09:27;;;;;;;16.45;6.33;;;;;;;2.88;51.31;99857.22;1700344;84;20974;-89
2022/02/28 01:11:53;;;;;;;11.20;5.42;;;;;;;2.86;51.22;99852.90;1671791;85;21105;-89
2022/02/28 01:14:20;;;;;;;12.13;5.28;;;;;;;2.80;51.27;99851.08;1654492;83;21587;-86
2022/02/28 01:16:47;;;;;;;12.28;5.47;;;;;;;2.76;51.73;99845.45;1634337;87;21075;-88
2022/02/28 01:19:14;;;;;;;9.30;4.37;;;;;;;2.70;52.17;99853.03;1713550;82;21011;-90
2022/02/28 01:21:40;;;;;;;15.18;4.67;;;;;;;2.68;51.79;99850.44;1721334;82;21577;-87
2022/02/28 01:24:07;;;;;;;11.30;4.87;;;;;;;2.48;52.21;99823.53;1717471;82;21048;-89
2022/02/28 01:26:34;;;;;;;11.35;4.78;;;;;;;2.60;52.27;99845.58;1723765;82;20991;-86
2022/02/28 01:29:00;;;;;;;12.35;4.87;;;;;;;2.56;52.00;99847.21;1722596;82;21063;-87
2022/02/28 01:31:27;;;;;;;11.00;4.30;;;;;;;2.55;51.95;99848.06;1680654;83;21040;-84
2022/02/28 01:33:54;;;;;;;12.15;4.87;;;;;;;2.50;51.84;99848.37;1676100;85;21028;-86
2022/02/28 01:36:20;;;;;;;9.68;4.37;;;;;;;2.48;52.08;99847.48;1701164;83;20988;-85
2022/02/28 01:38:47;;;;;;;12.20;4.53;;;;;;;2.39;52.62;99842.19;1723761;82;21562;-84
2022/02/28 01:41:13;;;;;;;9.10;4.62;;;;;;;2.36;52.80;99836.98;1749036;81;21067;-88
2022/02/28 01:43:41;;;;;;;9.33;4.87;;;;;;;2.32;52.56;99841.19;1670164;83;21650;-85
2022/02/28 01:46:07;;;;;;;11.68;4.55;;;;;;;2.27;52.66;99841.92;1708806;81;21070;-85
2022/02/28 01:48:34;;;;;;;9.30;4.15;;;;;;;2.21;54.39;99840.52;1730066;81;21058;-85
2022/02/28 01:51:00;;;;;;;10.03;4.20;;;;;;;2.17;52.96;99840.47;1722113;83;21030;-86
2022/02/28 01:53:27;;;;;;;10.35;4.03;;;;;;;2.13;53.17;99839.06;1693101;82;21012;-85
2022/02/28 01:55:54;;;;;;;11.20;4.55;;;;;;;2.09;53.99;99845.86;1687205;83;21000;-85
2022/02/28 01:58:20;;;;;;;10.55;4.40;;;;;;;2.06;53.24;99835.52;1722050;82;21109;-83
2022/02/28 02:00:47;;;;;;;11.88;5.37;;;;;;;2.02;53.95;99835.44;1717984;81;21019;-79
2022/02/28 02:03:27;;;;;;;10.18;4.30;;;;;;;1.97;54.07;99834.92;1702935;82;21156;31
2022/02/28 02:05:54;;;;;;;10.60;4.70;;;;;;;1.93;54.57;99834.80;1640401;87;21096;-82
2022/02/28 02:08:21;;;;;;;11.57;4.97;;;;;;;1.87;54.45;99831.72;1641528;84;22396;-82
2022/02/28 02:10:48;;;;;;;12.60;4.92;;;;;;;1.83;54.58;99829.03;1652999;83;21089;-83
2022/02/28 02:13:15;;;;;;;14.47;5.80;;;;;;;1.79;54.01;99823.85;1646282;86;21128;-83
2022/02/28 02:15:43;;;;;;;12.28;5.05;;;;;;;1.73;54.52;99826.28;1633846;85;21109;-84
2022/02/28 02:18:10;;;;;;;14.50;5.42;;;;;;;1.70;53.96;99828.77;1634959;86;21040;-83
2022/02/28 02:20:39;;;;;;;15.23;5.20;;;;;;;1.67;54.55;99823.59;1639925;87;21067;-83
2022/02/28 02:23:11;;;;;;;14.75;4.65;;;;;;;1.67;54.91;99829.11;1639864;87;20996;-82
2022/02/28 02:25:38;;;;;;;16.73;5.75;;;;;;;1.64;54.83;99832.47;1639218;87;21049;-85
2022/02/28 02:28:08;;;;;;;8.63;4.53;;;;;;;1.62;54.65;99823.88;1639598;87;21051;-86
2022/02/28 02:30:35;;;;;;;10.93;4.78;;;;;;;1.58;54.90;99819.52;1631456;85;22909;-81
2022/02/28 02:33:03;;;;;;;10.00;3.80;;;;;;;1.52;55.60;99817.68;1711986;83;21003;-83
2022/02/28 02:35:31;;;;;;;10.90;4.50;;;;;;;1.49;55.14;99820.19;1724073;83;21255;-83
2022/02/28 02:38:00;;;;;;;11.50;5.13;;;;;;;1.50;55.33;99819.77;1710480;83;20999;31
2022/02/28 02:40:27;;;;;;;13.18;4.75;;;;;;;1.50;55.58;99822.33;1609028;88;21343;-82
2022/02/28 02:42:53;;;;;;;12.70;4.15;;;;;;;1.48;55.28;99813.31;1608918;89;21071;-81
2022/02/28 02:45:20;;;;;;;8.98;4.17;;;;;;;1.44;54.97;99806.39;1609069;89;21071;-82
2022/02/28 02:50:26;;;;;;;12.23;4.60;;;;;;;1.41;55.07;99806.73;1608333;86;21067;-84
2022/02/28 02:52:53;;;;;;;11.35;4.33;;;;;;;1.41;55.16;99813.14;1589525;83;21166;-81
2022/02/28 02:55:21;;;;;;;15.15;5.03;;;;;;;1.40;55.17;99808.44;1630378;86;21061;-83
2022/02/28 02:57:47;;;;;;;14.95;4.53;;;;;;;1.39;55.21;99809.25;1646206;86;20996;-83
2022/02/28 03:00:29;;;;;;;11.55;4.90;;;;;;;1.38;55.73;99814.80;1678042;81;21101;31
2022/02/28 03:03:04;;;;;;;10.40;4.55;;;;;;;1.38;55.83;99811.37;1736377;81;21024;-82
2022/02/28 03:05:31;;;;;;;9.30;4.45;;;;;;;1.35;54.59;99810.90;1762607;81;20984;-83
2022/02/28 03:07:58;;;;;;;9.93;3.98;;;;;;;1.32;54.68;99812.09;1762660;80;21080;-83
2022/02/28 03:10:25;;;;;;;6.28;3.17;;;;;;;1.32;54.69;99809.53;1698347;81;21412;-84
2022/02/28 03:12:53;;;;;;;11.30;4.62;;;;;;;1.34;54.39;99814.70;1682488;83;21127;-82
2022/02/28 03:15:21;;;;;;;11.53;4.25;;;;;;;1.34;54.38;99807.88;1671798;84;21078;-82
2022/02/28 03:17:48;;;;;;;7.67;3.60;;;;;;;1.33;54.54;99803.59;1694723;81;21158;-83
2022/02/28 03:20:15;;;;;;;8.90;4.08;;;;;;;1.34;54.58;99802.75;1694032;81;21048;-82
2022/02/28 03:22:58;;;;;;;8.25;4.28;;;;;;;1.35;54.45;99808.34;1717492;81;21048;31
2022/02/28 03:25:25;;;;;;;9.00;3.67;;;;;;;1.34;54.79;99809.16;1665401;83;21035;-82
2022/02/28 03:27:54;;;;;;;11.75;4.03;;;;;;;1.33;54.80;99807.83;1691056;81;21059;-75
2022/02/28 03:30:20;;;;;;;9.00;3.65;;;;;;;1.34;54.96;99807.88;1720206;82;21267;-82
2022/02/28 03:32:47;;;;;;;11.65;4.37;;;;;;;1.35;54.61;99806.16;1720177;82;21075;-82
2022/02/28 03:37:49;;;;;;;13.20;4.20;;;;;;;1.31;54.81;99803.98;1658529;86;21061;-83
2022/02/28 03:40:16;;;;;;;11.93;4.17;;;;;;;1.30;55.60;99807.35;1656363;81;21209;-80
2022/02/28 03:48:53;;;;;;;8.00;3.75;;;;;;;1.28;55.38;99812.86;1699331;81;21229;31
2022/02/28 03:51:25;;;;;;;10.93;4.58;;;;;;;1.25;55.94;99802.52;1629527;86;21132;-82
2022/02/28 03:53:52;;;;;;;16.15;3.85;;;;;;;1.24;55.21;99816.17;1707624;81;21068;-83
2022/02/28 03:56:19;;;;;;;9.40;4.60;;;;;;;1.21;55.43;99810.11;1678592;83;21197;-82
2022/02/28 03:58:46;;;;;;;12.85;4.20;;;;;;;1.16;56.32;99822.81;1690749;83;21030;-83
2022/02/28 04:01:12;;;;;;;12.50;4.70;;;;;;;1.16;56.18;99818.97;1736942;82;21003;-84
2022/02/28 04:03:41;;;;;;;9.98;4.00;;;;;;;1.14;57.18;99819.34;1736413;82;21074;-84
2022/02/28 04:06:08;;;;;;;13.98;4.62;;;;;;;1.14;56.15;99811.24;1729345;83;21059;-84
2022/02/28 04:08:35;;;;;;;13.70;4.75;;;;;;;1.13;56.05;99814.62;1740278;82;20972;-83
2022/02/28 04:11:03;;;;;;;11.30;4.12;;;;;;;1.14;55.77;99809.96;1703698;82;21120;-81
2022/02/28 04:16:39;;;;;;;14.65;5.60;;;;;;;1.12;55.86;99815.46;1606725;86;21184;-85
2022/02/28 04:19:14;;;;;;;13.88;5.83;;;;;;;1.10;55.91;99818.40;1658747;82;21163;-82
2022/02/28 04:21:46;;;;;;;10.85;4.35;;;;;;;1.11;55.88;99818.83;1700343;81;21129;-82
2022/02/28 04:24:13;;;;;;;11.80;4.80;;;;;;;1.08;56.10;99816.22;1701605;83;21054;-82
2022/02/28 04:26:40;;;;;;;13.35;4.83;;;;;;;1.07;56.78;99822.16;1701536;84;21016;-83
2022/02/28 04:29:17;;;;;;;15.08;5.47;;;;;;;1.06;56.86;99827.26;1693160;81;20995;31
2022/02/28 04:31:43;;;;;;;15.35;5.12;;;;;;;1.06;57.21;99831.96;1650936;86;21057;-83
2022/02/28 04:37:04;;;;;;;14.10;5.00;;;;;;;1.09;56.21;99829.45;1641227;82;21095;-74
2022/02/28 04:39:33;;;;;;;10.50;4.62;;;;;;;1.09;56.68;99835.00;1673757;82;21101;31
2022/02/28 04:42:15;;;;;;;16.90;5.23;;;;;;;1.09;56.62;99835.00;1629760;83;21245;31
2022/02/28 04:44:43;;;;;;;12.33;4.95;;;;;;;1.11;57.71;99842.30;1640300;83;21111;-80
2022/02/28 04:47:11;;;;;;;15.40;5.85;;;;;;;1.14;56.64;99838.13;1643611;83;21152;-83
2022/02/28 04:49:39;;;;;;;14.43;5.47;;;;;;;1.09;57.34;99838.84;1681588;84;21110;-84
2022/02/28 04:52:07;;;;;;;18.85;5.85;;;;;;;1.10;56.96;99841.87;1683551;82;21155;-83
2022/02/28 04:54:34;;;;;;;11.88;4.78;;;;;;;1.09;57.04;99846.53;1727583;81;21051;-85
2022/02/28 04:57:01;;;;;;;15.53;5.08;;;;;;;1.09;56.91;99846.10;1727700;81;20996;-84
2022/02/28 04:59:29;;;;;;;15.65;4.75;;;;;;;1.11;57.02;99851.27;1719619;80;21102;-82
2022/02/28 05:01:58;;;;;;;16.60;5.03;;;;;;;1.11;57.33;99851.27;1704860;84;21473;-81
2022/02/28 05:04:43;;;;;;;14.93;6.08;;;;;;;1.15;57.04;99847.95;1683894;78;21074;-83
2022/02/28 05:07:10;;;;;;;16.00;5.78;;;;;;;1.16;56.49;99846.72;1694969;81;21056;-82
2022/02/28 05:09:37;;;;;;;20.57;7.60;;;;;;;1.17;57.26;99850.14;1679179;83;21103;-83
2022/02/28 05:12:04;;;;;;;19.17;5.65;;;;;;;1.19;57.19;99851.94;1704141;84;21047;-83
2022/02/28 05:14:38;;;;;;;17.52;7.60;;;;;;;1.22;57.29;99857.53;1661583;83;21149;31
2022/02/28 05:17:17;;;;;;;;;;;;;;;;;;;;;
2022/02/28 05:19:48;;;;;;;12.35;5.28;;;;;;;1.26;56.54;99865.75;1670982;83;21123;-82
2022/02/28 05:22:16;;;;;;;12.65;5.42;;;;;;;1.24;56.58;99867.41;1681190;84;21114;-82
2022/02/28 05:24:44;;;;;;;14.78;5.35;;;;;;;1.22;56.76;99869.06;1680532;84;21027;-83
2022/02/28 05:27:11;;;;;;;16.50;5.70;;;;;;;1.22;56.55;99865.22;1681046;83;21069;-83
2022/02/28 05:29:39;;;;;;;19.42;6.03;;;;;;;1.25;56.59;99869.13;1656352;83;21206;-83
2022/02/28 05:32:08;;;;;;;18.67;7.60;;;;;;;1.25;56.68;99871.69;1680549;82;21043;-83
2022/02/28 05:34:40;;;;;;;21.93;8.53;;;;;;;1.28;56.65;99875.62;1699068;81;21193;-82
2022/02/28 05:37:24;;;;;;;15.15;7.45;;;;;;;1.28;56.78;99879.46;1654957;82;21107;31
2022/02/28 05:39:53;;;;;;;15.18;6.45;;;;;;;1.31;56.89;99879.55;1687799;83;21271;-82
2022/02/28 05:42:22;;;;;;;24.00;10.23;;;;;;;1.33;56.91;99881.73;1684150;82;21089;-83
2022/02/28 05:44:51;;;;;;;25.25;9.45;;;;;;;1.37;56.89;99883.54;1651763;85;21041;-86
2022/02/28 05:47:18;;;;;;;30.30;9.80;;;;;;;1.41;56.89;99887.44;1631288;85;21099;-83
2022/02/28 05:49:47;;;;;;;84.72;20.68;;;;;;;1.45;56.60;99887.55;1631796;83;21215;-80
2022/02/28 05:52:14;;;;;;;52.88;15.35;;;;;;;1.49;56.89;99891.05;1655561;84;21042;-82
2022/02/28 05:54:40;;;;;;;70.50;15.88;;;;;;;1.49;56.84;99891.05;1684707;83;21040;-81
2022/02/28 05:57:07;;;;;;;50.80;12.80;;;;;;;1.48;57.50;99895.74;1662268;83;21107;-82
2022/02/28 05:59:33;;;;;;;58.78;13.88;;;;;;;1.50;57.45;99903.91;1721831;81;21040;-82
2022/02/28 06:02:00;;;;;;;51.65;12.85;;;;;;;1.53;56.80;99905.67;1742148;82;21015;-82
2022/02/28 06:04:27;;;;;;;40.92;11.55;;;;;;;1.50;57.48;99905.62;1690240;81;21027;-82
2022/02/28 06:06:53;;;;;;;37.03;10.53;;;;;;;1.51;57.36;99911.17;1691936;83;21063;-82
2022/02/28 06:09:20;;;;;;;75.52;16.27;;;;;;;1.55;57.51;99912.98;1684428;83;21058;-81
2022/02/28 06:11:49;;;;;;;37.65;10.80;;;;;;;1.56;57.53;99910.89;1681817;83;21049;-81
2022/02/28 06:14:16;;;;;;;34.85;9.85;;;;;;;1.58;57.54;99910.08;1688922;83;21130;-81
2022/02/28 06:16:43;;;;;;;31.75;11.05;;;;;;;1.62;57.56;99911.03;1667129;83;21535;-82
2022/02/28 06:19:09;;;;;;;44.73;12.60;;;;;;;1.66;57.51;99915.41;1653802;85;21092;-84
2022/02/28 06:21:36;;;;;;;34.35;9.55;;;;;;;1.71;57.46;99917.67;1693445;85;21079;-83
2022/02/28 06:24:02;;;;;;;18.30;6.65;;;;;;;1.74;57.60;99921.58;1642981;86;21046;-81
2022/02/28 06:26:29;;;;;;;13.75;5.70;;;;;;;1.75;59.09;99924.99;1666575;86;21016;-82
2022/02/28 06:28:56;;;;;;;14.15;6.40;;;;;;;1.82;58.58;99929.88;1666907;86;21059;-83
2022/02/28 06:31:22;;;;;;;17.20;7.60;;;;;;;1.86;58.28;99931.67;1666920;86;21020;-83
2022/02/28 06:33:49;;;;;;;12.40;4.90;;;;;;;1.91;58.66;99930.06;1668819;86;21036;-82
2022/02/28 06:36:15;;;;;;;13.80;3.92;;;;;;;1.97;59.96;99938.79;1672813;83;21096;-83
2022/02/28 06:38:41;;;;;;;10.65;4.33;;;;;;;2.03;60.49;99934.61;1668210;85;20992;-83
2022/02/28 06:43:42;;;;;;;10.38;4.42;;;;;;;2.11;63.76;99933.97;1640087;84;21108;-85
2022/02/28 06:46:09;;;;;;;7.85;3.70;;;;;;;2.15;60.54;99933.63;1628178;86;21144;-83
2022/02/28 06:48:36;;;;;;;10.78;4.17;;;;;;;2.22;64.36;99941.89;1638839;86;21107;-83
2022/02/28 06:51:02;;;;;;;19.42;7.78;;;;;;;2.28;64.42;99942.45;1670671;86;21142;-88
2022/02/28 06:53:29;;;;;;;8.98;4.22;;;;;;;2.32;63.25;99944.25;1681557;85;21002;-84
2022/02/28 06:55:56;;;;;;;13.38;5.95;;;;;;;2.38;64.62;99943.09;1667420;84;21053;-87
2022/02/28 06:58:23;;;;;;;8.60;3.62;;;;;;;2.48;64.16;99942.45;1703569;80;21067;-84
2022/02/28 07:00:53;;;;;;;16.75;5.12;;;;;;;2.56;64.02;99943.48;1708825;80;21136;-82
2022/02/28 07:03:25;;;;;;;11.97;5.22;;;;;;;2.64;64.33;99946.63;1676584;83;21341;-84
2022/02/28 07:05:54;;;;;;;11.33;5.30;;;;;;;2.75;64.89;99949.02;1727890;81;21046;-81
2022/02/28 07:08:22;;;;;;;46.60;14.40;;;;;;;2.78;65.16;99944.77;1713134;83;21083;-81
2022/02/28 07:10:50;;;;;;;43.52;17.25;;;;;;;2.80;64.32;99952.52;1676222;84;21100;-84
2022/02/28 07:13:18;;;;;;;66.33;27.77;;;;;;;2.83;67.09;99947.88;1705963;83;21082;-83
2022/02/28 07:15:46;;;;;;;33.08;16.55;;;;;;;2.89;63.31;99954.42;1660142;84;21068;-85
2022/02/28 07:18:14;;;;;;;17.07;8.28;;;;;;;2.81;65.42;99964.97;1683987;84;21028;-79
2022/02/28 07:20:41;;;;;;;39.13;13.95;;;;;;;2.72;67.17;99961.77;1707498;83;21086;-79
2022/02/28 07:23:08;;;;;;;18.57;8.50;;;;;;;2.67;67.31;99951.84;1708976;83;21042;-80
2022/02/28 07:25:35;;;;;;;13.72;8.05;;;;;;;2.68;67.79;99946.72;1707237;82;21102;-79
2022/02/28 07:28:02;;;;;;;11.33;6.17;;;;;;;2.70;66.36;99948.03;1708875;83;21424;-83
2022/02/28 07:30:30;;;;;;;16.35;7.83;;;;;;;2.72;67.25;99946.37;1708302;82;21062;-84
2022/02/28 07:32:56;;;;;;;14.43;7.03;;;;;;;2.76;67.46;99951.59;1705914;83;20994;-81
2022/02/28 07:35:23;;;;;;;24.37;8.73;;;;;;;2.83;66.94;99957.73;1706353;82;21054;-80
2022/02/28 07:37:50;;;;;;;19.35;8.70;;;;;;;2.91;66.47;99965.59;1672340;84;21063;-82
2022/02/28 07:40:17;;;;;;;14.10;6.17;;;;;;;2.96;67.05;99971.27;1716110;83;21186;-84
2022/02/28 07:42:44;;;;;;;23.22;9.68;;;;;;;3.01;68.53;99969.21;1692018;83;21111;-84
2022/02/28 07:45:11;;;;;;;13.68;6.95;;;;;;;3.03;69.50;99967.53;1666811;86;21015;-87
2022/02/28 07:47:38;;;;;;;13.65;5.58;;;;;;;3.03;68.55;99974.81;1694114;83;21043;-81
2022/02/28 07:50:06;;;;;;;13.98;6.58;;;;;;;3.01;69.80;99973.06;1698176;83;21330;-86
2022/02/28 07:52:33;;;;;;;11.50;5.40;;;;;;;3.05;68.23;99969.28;1691385;83;21595;-86
